sensor_id;sensor_type;location;lat;lon;timestamp;pressure;altitude;pressure_sealevel;temperature;humidity
9676;BME280;4876;42.656;23.292;2023-05-11T00:01:13;94519.19;;;9.07;85.80
9676;BME280;4876;42.656;23.292;2023-05-11T00:03:40;94513.75;;;9.03;85.20
9676;BME280;4876;42.656;23.292;2023-05-11T00:06:07;94519.56;;;9.00;85.53
9676;BME280;4876;42.656;23.292;2023-05-11T00:08:33;94513.38;;;8.96;86.09
9676;BME280;4876;42.656;23.292;2023-05-11T00:11:02;94521.81;;;8.93;85.63
9676;BME280;4876;42.656;23.292;2023-05-11T00:13:32;94522.41;;;8.90;86.09
9676;BME280;4876;42.656;23.292;2023-05-11T00:15:59;94525.44;;;8.83;85.43
9676;BME280;4876;42.656;23.292;2023-05-11T00:18:26;94511.34;;;8.79;85.37
9676;BME280;4876;42.656;23.292;2023-05-11T00:20:52;94532.22;;;8.84;84.83
9676;BME280;4876;42.656;23.292;2023-05-11T00:23:19;94516.41;;;8.76;85.35
9676;BME280;4876;42.656;23.292;2023-05-11T00:25:46;94515.13;;;8.73;85.83
9676;BME280;4876;42.656;23.292;2023-05-11T00:28:14;94525.63;;;8.73;85.85
9676;BME280;4876;42.656;23.292;2023-05-11T00:30:41;94534.78;;;8.76;86.10
9676;BME280;4876;42.656;23.292;2023-05-11T00:33:08;94507.97;;;8.65;86.25
9676;BME280;4876;42.656;23.292;2023-05-11T00:35:35;94523.19;;;8.63;86.49
9676;BME280;4876;42.656;23.292;2023-05-11T00:38:02;94504.19;;;8.71;86.16
9676;BME280;4876;42.656;23.292;2023-05-11T00:40:30;94515.91;;;8.74;85.70
9676;BME280;4876;42.656;23.292;2023-05-11T00:42:57;94521.53;;;8.81;85.87
9676;BME280;4876;42.656;23.292;2023-05-11T00:45:25;94516.91;;;8.78;85.90
9676;BME280;4876;42.656;23.292;2023-05-11T00:47:52;94533.56;;;8.82;86.24
9676;BME280;4876;42.656;23.292;2023-05-11T00:50:19;94527.94;;;8.75;86.11
9676;BME280;4876;42.656;23.292;2023-05-11T00:52:46;94541.34;;;8.73;86.14
9676;BME280;4876;42.656;23.292;2023-05-11T00:55:13;94538.25;;;8.71;86.34
9676;BME280;4876;42.656;23.292;2023-05-11T00:57:42;94534.97;;;8.66;86.85
9676;BME280;4876;42.656;23.292;2023-05-11T01:00:10;94530.69;;;8.70;86.84
9676;BME280;4876;42.656;23.292;2023-05-11T01:02:38;94553.22;;;8.71;86.81
9676;BME280;4876;42.656;23.292;2023-05-11T01:05:06;94538.16;;;8.62;87.15
9676;BME280;4876;42.656;23.292;2023-05-11T01:07:36;94533.59;;;8.54;87.70
9676;BME280;4876;42.656;23.292;2023-05-11T01:10:09;94535.06;;;8.47;88.55
9676;BME280;4876;42.656;23.292;2023-05-11T01:12:45;94511.34;;;8.38;88.46
9676;BME280;4876;42.656;23.292;2023-05-11T01:15:18;94517.50;;;8.47;88.91
9676;BME280;4876;42.656;23.292;2023-05-11T01:17:56;94523.13;;;8.41;88.48
9676;BME280;4876;42.656;23.292;2023-05-11T01:20:25;94521.47;;;8.45;88.00
9676;BME280;4876;42.656;23.292;2023-05-11T01:23:09;94525.66;;;8.46;88.51
9676;BME280;4876;42.656;23.292;2023-05-11T01:26:03;94524.66;;;8.42;87.71
9676;BME280;4876;42.656;23.292;2023-05-11T01:28:56;94534.25;;;8.32;88.02
9676;BME280;4876;42.656;23.292;2023-05-11T01:31:31;94521.41;;;8.31;88.70
9676;BME280;4876;42.656;23.292;2023-05-11T01:34:02;94529.09;;;8.27;87.99
9676;BME280;4876;42.656;23.292;2023-05-11T01:36:33;94528.72;;;8.34;87.58
9676;BME280;4876;42.656;23.292;2023-05-11T01:39:03;94521.84;;;8.38;86.53
9676;BME280;4876;42.656;23.292;2023-05-11T01:41:32;94518.84;;;8.45;86.09
9676;BME280;4876;42.656;23.292;2023-05-11T01:44:04;94526.41;;;8.46;85.96
9676;BME280;4876;42.656;23.292;2023-05-11T01:46:33;94523.19;;;8.49;84.93
9676;BME280;4876;42.656;23.292;2023-05-11T01:49:02;94525.06;;;8.49;85.54
9676;BME280;4876;42.656;23.292;2023-05-11T01:51:34;94519.81;;;8.49;84.65
9676;BME280;4876;42.656;23.292;2023-05-11T01:54:05;94519.50;;;8.50;84.15
9676;BME280;4876;42.656;23.292;2023-05-11T01:56:32;94525.81;;;8.49;84.10
9676;BME280;4876;42.656;23.292;2023-05-11T01:59:01;94517.50;;;8.47;84.22
9676;BME280;4876;42.656;23.292;2023-05-11T02:01:29;94524.09;;;8.45;84.24
9676;BME280;4876;42.656;23.292;2023-05-11T02:04:03;94531.47;;;8.43;84.66
9676;BME280;4876;42.656;23.292;2023-05-11T02:06:31;94518.66;;;8.41;84.19
9676;BME280;4876;42.656;23.292;2023-05-11T02:09:00;94530.19;;;8.40;84.20
9676;BME280;4876;42.656;23.292;2023-05-11T02:11:28;94507.56;;;8.44;83.59
9676;BME280;4876;42.656;23.292;2023-05-11T02:13:57;94513.22;;;8.51;83.12
9676;BME280;4876;42.656;23.292;2023-05-11T02:16:25;94510.31;;;8.53;82.18
9676;BME280;4876;42.656;23.292;2023-05-11T02:18:54;94509.03;;;8.50;82.44
9676;BME280;4876;42.656;23.292;2023-05-11T02:21:26;94519.03;;;8.48;82.58
9676;BME280;4876;42.656;23.292;2023-05-11T02:23:54;94521.75;;;8.43;83.20
9676;BME280;4876;42.656;23.292;2023-05-11T02:26:22;94514.97;;;8.42;81.88
9676;BME280;4876;42.656;23.292;2023-05-11T02:28:49;94520.19;;;8.42;82.00
9676;BME280;4876;42.656;23.292;2023-05-11T02:31:18;94510.78;;;8.41;82.19
9676;BME280;4876;42.656;23.292;2023-05-11T02:33:47;94518.44;;;8.38;82.23
9676;BME280;4876;42.656;23.292;2023-05-11T02:36:18;94488.25;;;8.26;81.94
9676;BME280;4876;42.656;23.292;2023-05-11T02:38:48;94508.16;;;8.41;81.90
9676;BME280;4876;42.656;23.292;2023-05-11T02:41:19;94444.84;;;7.93;81.16
9676;BME280;4876;42.656;23.292;2023-05-11T02:43:49;94522.50;;;8.30;81.38
9676;BME280;4876;42.656;23.292;2023-05-11T02:46:19;94501.53;;;8.16;82.04
9676;BME280;4876;42.656;23.292;2023-05-11T02:48:50;94511.63;;;8.09;82.13
9676;BME280;4876;42.656;23.292;2023-05-11T02:51:21;94510.44;;;8.01;83.66
9676;BME280;4876;42.656;23.292;2023-05-11T02:53:52;94514.69;;;7.97;83.86
9676;BME280;4876;42.656;23.292;2023-05-11T02:56:20;94508.47;;;7.93;83.74
9676;BME280;4876;42.656;23.292;2023-05-11T02:58:49;94536.78;;;7.91;84.63
9676;BME280;4876;42.656;23.292;2023-05-11T03:01:16;94514.84;;;7.87;84.55
9676;BME280;4876;42.656;23.292;2023-05-11T03:03:43;94518.84;;;7.85;84.29
9676;BME280;4876;42.656;23.292;2023-05-11T03:06:09;94516.22;;;7.85;84.53
9676;BME280;4876;42.656;23.292;2023-05-11T03:08:36;94513.91;;;7.83;85.06
9676;BME280;4876;42.656;23.292;2023-05-11T03:11:05;94504.19;;;7.83;84.85
9676;BME280;4876;42.656;23.292;2023-05-11T03:13:33;94508.91;;;7.81;84.71
9676;BME280;4876;42.656;23.292;2023-05-11T03:16:01;94518.63;;;7.81;85.46
9676;BME280;4876;42.656;23.292;2023-05-11T03:18:28;94514.44;;;7.80;85.42
9676;BME280;4876;42.656;23.292;2023-05-11T03:20:56;94521.81;;;7.78;85.61
9676;BME280;4876;42.656;23.292;2023-05-11T03:23:25;94513.47;;;7.76;85.49
9676;BME280;4876;42.656;23.292;2023-05-11T03:25:53;94538.31;;;7.78;85.73
9676;BME280;4876;42.656;23.292;2023-05-11T03:28:23;94511.66;;;7.76;86.14
9676;BME280;4876;42.656;23.292;2023-05-11T03:30:51;94523.75;;;7.72;85.84
9676;BME280;4876;42.656;23.292;2023-05-11T03:33:19;94518.22;;;7.74;85.55
9676;BME280;4876;42.656;23.292;2023-05-11T03:35:47;94526.06;;;7.74;85.79
9676;BME280;4876;42.656;23.292;2023-05-11T03:38:15;94523.38;;;7.79;85.99
9676;BME280;4876;42.656;23.292;2023-05-11T03:40:43;94526.56;;;7.76;85.79
9676;BME280;4876;42.656;23.292;2023-05-11T03:43:14;94518.50;;;7.72;86.17
9676;BME280;4876;42.656;23.292;2023-05-11T03:45:44;94532.28;;;7.78;85.76
9676;BME280;4876;42.656;23.292;2023-05-11T03:48:13;94528.59;;;7.79;85.67
9676;BME280;4876;42.656;23.292;2023-05-11T03:50:41;94533.56;;;7.80;85.34
9676;BME280;4876;42.656;23.292;2023-05-11T03:53:09;94538.09;;;7.75;85.26
9676;BME280;4876;42.656;23.292;2023-05-11T03:55:36;94519.28;;;7.73;85.76
9676;BME280;4876;42.656;23.292;2023-05-11T03:58:05;94542.84;;;7.73;85.27
9676;BME280;4876;42.656;23.292;2023-05-11T04:00:33;94535.00;;;7.73;86.03
9676;BME280;4876;42.656;23.292;2023-05-11T04:03:05;94538.09;;;7.75;86.32
9676;BME280;4876;42.656;23.292;2023-05-11T04:05:32;94531.00;;;7.75;86.01
9676;BME280;4876;42.656;23.292;2023-05-11T04:07:59;94533.84;;;7.79;86.40
9676;BME280;4876;42.656;23.292;2023-05-11T04:10:26;94553.25;;;7.78;86.05
9676;BME280;4876;42.656;23.292;2023-05-11T04:12:53;94537.53;;;7.78;86.66
9676;BME280;4876;42.656;23.292;2023-05-11T04:15:20;94534.50;;;7.71;86.52
9676;BME280;4876;42.656;23.292;2023-05-11T04:17:47;94544.09;;;7.75;86.87
9676;BME280;4876;42.656;23.292;2023-05-11T04:20:15;94558.06;;;7.71;86.52
9676;BME280;4876;42.656;23.292;2023-05-11T04:22:42;94545.06;;;7.66;86.64
9676;BME280;4876;42.656;23.292;2023-05-11T04:25:09;94547.97;;;7.64;87.70
9676;BME280;4876;42.656;23.292;2023-05-11T04:27:36;94547.38;;;7.67;87.85
9676;BME280;4876;42.656;23.292;2023-05-11T04:30:03;94548.22;;;7.63;87.79
9676;BME280;4876;42.656;23.292;2023-05-11T04:32:30;94573.00;;;7.70;88.54
9676;BME280;4876;42.656;23.292;2023-05-11T04:34:57;94559.69;;;7.67;88.27
9676;BME280;4876;42.656;23.292;2023-05-11T04:37:25;94568.09;;;7.64;88.72
9676;BME280;4876;42.656;23.292;2023-05-11T04:39:52;94565.00;;;7.62;88.40
9676;BME280;4876;42.656;23.292;2023-05-11T04:42:18;94560.25;;;7.64;88.59
9676;BME280;4876;42.656;23.292;2023-05-11T04:44:45;94564.91;;;7.67;89.07
9676;BME280;4876;42.656;23.292;2023-05-11T04:47:13;94572.78;;;7.67;88.83
9676;BME280;4876;42.656;23.292;2023-05-11T04:49:39;94565.56;;;7.59;89.46
9676;BME280;4876;42.656;23.292;2023-05-11T04:52:08;94571.59;;;7.59;89.77
9676;BME280;4876;42.656;23.292;2023-05-11T04:54:37;94569.81;;;7.54;90.08
9676;BME280;4876;42.656;23.292;2023-05-11T04:57:04;94578.16;;;7.56;90.62
9676;BME280;4876;42.656;23.292;2023-05-11T04:59:30;94577.19;;;7.52;90.84
9676;BME280;4876;42.656;23.292;2023-05-11T05:02:00;94570.38;;;7.51;91.08
9676;BME280;4876;42.656;23.292;2023-05-11T05:04:27;94571.16;;;7.52;91.62
9676;BME280;4876;42.656;23.292;2023-05-11T05:06:54;94571.94;;;7.52;92.05
9676;BME280;4876;42.656;23.292;2023-05-11T05:09:21;94579.16;;;7.61;91.51
9676;BME280;4876;42.656;23.292;2023-05-11T05:11:49;94581.84;;;7.55;91.87
9676;BME280;4876;42.656;23.292;2023-05-11T05:14:16;94594.06;;;7.60;91.68
9676;BME280;4876;42.656;23.292;2023-05-11T05:16:42;94593.06;;;7.75;91.62
9676;BME280;4876;42.656;23.292;2023-05-11T05:19:09;94585.00;;;7.71;91.65
9676;BME280;4876;42.656;23.292;2023-05-11T05:21:37;94595.84;;;7.65;92.13
9676;BME280;4876;42.656;23.292;2023-05-11T05:24:05;94591.59;;;7.69;92.98
9676;BME280;4876;42.656;23.292;2023-05-11T05:26:35;94606.31;;;7.65;92.58
9676;BME280;4876;42.656;23.292;2023-05-11T05:29:03;94569.41;;;7.47;92.90
9676;BME280;4876;42.656;23.292;2023-05-11T05:31:30;94595.25;;;7.68;93.36
9676;BME280;4876;42.656;23.292;2023-05-11T05:33:57;94591.59;;;7.69;92.73
9676;BME280;4876;42.656;23.292;2023-05-11T05:36:24;94591.31;;;7.70;92.76
9676;BME280;4876;42.656;23.292;2023-05-11T05:38:51;94599.50;;;7.64;93.13
9676;BME280;4876;42.656;23.292;2023-05-11T05:41:17;94590.81;;;7.68;93.65
9676;BME280;4876;42.656;23.292;2023-05-11T05:43:46;94585.13;;;7.80;93.05
9676;BME280;4876;42.656;23.292;2023-05-11T05:46:14;94588.75;;;7.84;90.93
9676;BME280;4876;42.656;23.292;2023-05-11T05:48:41;94592.34;;;7.88;91.27
9676;BME280;4876;42.656;23.292;2023-05-11T05:51:08;94607.06;;;7.84;89.92
9676;BME280;4876;42.656;23.292;2023-05-11T05:53:35;94618.25;;;7.90;90.77
9676;BME280;4876;42.656;23.292;2023-05-11T05:56:03;94598.34;;;8.07;90.47
9676;BME280;4876;42.656;23.292;2023-05-11T05:58:29;94618.28;;;8.03;89.66
9676;BME280;4876;42.656;23.292;2023-05-11T06:00:56;94605.75;;;8.00;89.53
9676;BME280;4876;42.656;23.292;2023-05-11T06:03:24;94603.47;;;8.13;89.42
9676;BME280;4876;42.656;23.292;2023-05-11T06:05:51;94607.88;;;8.31;87.85
9676;BME280;4876;42.656;23.292;2023-05-11T06:08:18;94607.56;;;8.19;86.33
9676;BME280;4876;42.656;23.292;2023-05-11T06:10:44;94606.69;;;8.09;88.60
9676;BME280;4876;42.656;23.292;2023-05-11T06:13:11;94614.56;;;8.23;87.86
9676;BME280;4876;42.656;23.292;2023-05-11T06:15:38;94620.41;;;8.20;86.69
9676;BME280;4876;42.656;23.292;2023-05-11T06:18:05;94628.63;;;8.14;87.23
9676;BME280;4876;42.656;23.292;2023-05-11T06:20:33;94617.56;;;8.17;86.87
9676;BME280;4876;42.656;23.292;2023-05-11T06:23:00;94642.34;;;8.05;86.66
9676;BME280;4876;42.656;23.292;2023-05-11T06:25:26;94628.41;;;8.10;87.83
9676;BME280;4876;42.656;23.292;2023-05-11T06:27:53;94640.25;;;8.07;87.98
9676;BME280;4876;42.656;23.292;2023-05-11T06:30:20;94627.78;;;7.99;88.00
9676;BME280;4876;42.656;23.292;2023-05-11T06:32:47;94624.25;;;7.90;89.18
9676;BME280;4876;42.656;23.292;2023-05-11T06:35:14;94637.28;;;7.95;88.43
9676;BME280;4876;42.656;23.292;2023-05-11T06:37:42;94637.75;;;7.97;89.29
9676;BME280;4876;42.656;23.292;2023-05-11T06:40:09;94629.75;;;8.07;88.86
9676;BME280;4876;42.656;23.292;2023-05-11T06:42:36;94624.72;;;8.11;88.54
9676;BME280;4876;42.656;23.292;2023-05-11T06:45:03;94626.84;;;8.09;88.92
9676;BME280;4876;42.656;23.292;2023-05-11T06:47:29;94631.13;;;8.19;88.80
9676;BME280;4876;42.656;23.292;2023-05-11T06:49:56;94636.03;;;8.06;89.02
9676;BME280;4876;42.656;23.292;2023-05-11T06:52:23;94628.44;;;8.24;89.01
9676;BME280;4876;42.656;23.292;2023-05-11T06:54:51;94631.41;;;8.36;87.62
9676;BME280;4876;42.656;23.292;2023-05-11T06:57:18;94636.38;;;8.19;86.83
9676;BME280;4876;42.656;23.292;2023-05-11T06:59:45;94651.53;;;8.22;88.12
9676;BME280;4876;42.656;23.292;2023-05-11T07:02:12;94633.91;;;8.27;88.51
9676;BME280;4876;42.656;23.292;2023-05-11T07:04:38;94626.72;;;8.33;87.91
9676;BME280;4876;42.656;23.292;2023-05-11T07:07:05;94634.44;;;8.43;87.57
9676;BME280;4876;42.656;23.292;2023-05-11T07:09:35;94640.38;;;8.49;86.49
9676;BME280;4876;42.656;23.292;2023-05-11T07:12:04;94642.94;;;8.68;85.10
9676;BME280;4876;42.656;23.292;2023-05-11T07:14:31;94638.84;;;8.61;84.41
9676;BME280;4876;42.656;23.292;2023-05-11T07:16:58;94641.84;;;8.69;85.49
9676;BME280;4876;42.656;23.292;2023-05-11T07:19:24;94640.38;;;8.49;85.03
9676;BME280;4876;42.656;23.292;2023-05-11T07:21:51;94639.44;;;8.72;85.63
9676;BME280;4876;42.656;23.292;2023-05-11T07:24:18;94642.66;;;9.10;84.32
9676;BME280;4876;42.656;23.292;2023-05-11T07:26:45;94642.38;;;8.98;82.08
9676;BME280;4876;42.656;23.292;2023-05-11T07:29:14;94648.09;;;9.00;83.43
9676;BME280;4876;42.656;23.292;2023-05-11T07:31:41;94645.28;;;9.10;83.84
9676;BME280;4876;42.656;23.292;2023-05-11T07:34:08;94648.97;;;9.09;83.39
9676;BME280;4876;42.656;23.292;2023-05-11T07:36:35;94645.59;;;8.95;83.33
9676;BME280;4876;42.656;23.292;2023-05-11T07:39:02;94647.22;;;9.05;82.52
9676;BME280;4876;42.656;23.292;2023-05-11T07:41:28;94676.84;;;8.78;82.33
9676;BME280;4876;42.656;23.292;2023-05-11T07:43:55;94650.88;;;8.62;84.22
9676;BME280;4876;42.656;23.292;2023-05-11T07:46:23;94648.38;;;8.85;83.26
9676;BME280;4876;42.656;23.292;2023-05-11T07:48:50;94660.03;;;8.79;82.91
9676;BME280;4876;42.656;23.292;2023-05-11T07:51:17;94663.66;;;9.10;81.97
9676;BME280;4876;42.656;23.292;2023-05-11T07:53:43;94647.81;;;9.15;81.03
9676;BME280;4876;42.656;23.292;2023-05-11T07:56:10;94668.50;;;9.31;78.66
9676;BME280;4876;42.656;23.292;2023-05-11T07:58:37;94650.22;;;9.39;79.70
9676;BME280;4876;42.656;23.292;2023-05-11T08:01:04;94652.94;;;9.48;78.22
9676;BME280;4876;42.656;23.292;2023-05-11T08:03:33;94641.19;;;9.46;78.09
9676;BME280;4876;42.656;23.292;2023-05-11T08:06:00;94651.28;;;9.52;77.70
9676;BME280;4876;42.656;23.292;2023-05-11T08:08:26;94659.63;;;9.54;77.79
9676;BME280;4876;42.656;23.292;2023-05-11T08:10:54;94671.31;;;9.48;76.54
9676;BME280;4876;42.656;23.292;2023-05-11T08:13:21;94652.59;;;9.77;76.20
9676;BME280;4876;42.656;23.292;2023-05-11T08:15:48;94659.59;;;9.68;75.99
9676;BME280;4876;42.656;23.292;2023-05-11T08:18:14;94656.34;;;9.85;74.72
9676;BME280;4876;42.656;23.292;2023-05-11T08:20:43;94650.72;;;10.14;75.62
9676;BME280;4876;42.656;23.292;2023-05-11T08:23:10;94662.78;;;10.15;73.48
9676;BME280;4876;42.656;23.292;2023-05-11T08:25:48;94650.59;;;10.41;73.66
9676;BME280;4876;42.656;23.292;2023-05-11T08:28:15;94641.72;;;10.29;73.16
9676;BME280;4876;42.656;23.292;2023-05-11T08:30:42;94645.66;;;10.40;72.47
9676;BME280;4876;42.656;23.292;2023-05-11T08:33:09;94670.97;;;10.13;72.22
9676;BME280;4876;42.656;23.292;2023-05-11T08:35:37;94669.00;;;10.19;73.35
9676;BME280;4876;42.656;23.292;2023-05-11T08:38:05;94656.63;;;10.42;73.11
9676;BME280;4876;42.656;23.292;2023-05-11T08:40:32;94664.34;;;10.38;71.45
9676;BME280;4876;42.656;23.292;2023-05-11T08:42:59;94657.59;;;10.46;71.77
9676;BME280;4876;42.656;23.292;2023-05-11T08:45:26;94650.50;;;10.10;71.97
9676;BME280;4876;42.656;23.292;2023-05-11T08:47:57;94664.91;;;10.27;72.20
9676;BME280;4876;42.656;23.292;2023-05-11T08:50:24;94663.38;;;10.57;71.87
9676;BME280;4876;42.656;23.292;2023-05-11T08:52:50;94669.53;;;10.30;71.97
9676;BME280;4876;42.656;23.292;2023-05-11T08:55:20;94653.69;;;10.66;72.80
9676;BME280;4876;42.656;23.292;2023-05-11T08:57:48;94661.97;;;10.82;71.86
9676;BME280;4876;42.656;23.292;2023-05-11T09:00:17;94658.91;;;10.57;71.35
9676;BME280;4876;42.656;23.292;2023-05-11T09:02:45;94646.63;;;10.44;72.12
9676;BME280;4876;42.656;23.292;2023-05-11T09:05:13;94655.31;;;10.31;71.70
9676;BME280;4876;42.656;23.292;2023-05-11T09:07:41;94651.38;;;10.42;72.40
9676;BME280;4876;42.656;23.292;2023-05-11T09:10:09;94625.94;;;10.29;73.61
9676;BME280;4876;42.656;23.292;2023-05-11T09:12:38;94644.69;;;10.36;73.13
9676;BME280;4876;42.656;23.292;2023-05-11T09:15:06;94643.75;;;10.32;73.16
9676;BME280;4876;42.656;23.292;2023-05-11T09:17:33;94659.44;;;10.23;73.32
9676;BME280;4876;42.656;23.292;2023-05-11T09:20:02;94636.84;;;10.22;73.33
9676;BME280;4876;42.656;23.292;2023-05-11T09:22:31;94645.75;;;10.57;72.78
9676;BME280;4876;42.656;23.292;2023-05-11T09:24:59;94665.59;;;10.41;72.75
9676;BME280;4876;42.656;23.292;2023-05-11T09:27:27;94658.66;;;10.22;73.95
9676;BME280;4876;42.656;23.292;2023-05-11T09:29:55;94653.03;;;10.15;74.63
9676;BME280;4876;42.656;23.292;2023-05-11T09:32:22;94658.09;;;10.12;75.27
9676;BME280;4876;42.656;23.292;2023-05-11T09:34:49;94649.16;;;10.13;76.06
9676;BME280;4876;42.656;23.292;2023-05-11T09:37:17;94636.03;;;10.35;75.65
9676;BME280;4876;42.656;23.292;2023-05-11T09:39:44;94652.63;;;10.22;75.29
9676;BME280;4876;42.656;23.292;2023-05-11T09:42:12;94626.50;;;10.03;75.87
9676;BME280;4876;42.656;23.292;2023-05-11T09:44:39;94647.50;;;10.39;75.14
9676;BME280;4876;42.656;23.292;2023-05-11T09:47:13;94646.81;;;10.11;76.08
9676;BME280;4876;42.656;23.292;2023-05-11T09:49:40;94646.44;;;10.04;76.03
9676;BME280;4876;42.656;23.292;2023-05-11T09:52:09;94635.09;;;10.17;76.89
9676;BME280;4876;42.656;23.292;2023-05-11T09:54:40;94624.97;;;10.24;76.27
9676;BME280;4876;42.656;23.292;2023-05-11T09:57:24;94622.56;;;10.59;76.17
9676;BME280;4876;42.656;23.292;2023-05-11T09:59:51;94636.16;;;10.30;75.34
9676;BME280;4876;42.656;23.292;2023-05-11T10:02:21;94624.06;;;10.29;76.14
9676;BME280;4876;42.656;23.292;2023-05-11T10:04:49;94625.47;;;10.27;75.66
9676;BME280;4876;42.656;23.292;2023-05-11T10:07:25;94624.59;;;9.95;77.78
9676;BME280;4876;42.656;23.292;2023-05-11T10:09:53;94640.63;;;10.30;76.82
9676;BME280;4876;42.656;23.292;2023-05-11T10:12:22;94596.06;;;10.02;77.01
9676;BME280;4876;42.656;23.292;2023-05-11T10:14:51;94628.66;;;10.01;78.20
9676;BME280;4876;42.656;23.292;2023-05-11T10:17:19;94626.41;;;10.08;78.33
9676;BME280;4876;42.656;23.292;2023-05-11T10:19:48;94622.19;;;9.85;78.25
9676;BME280;4876;42.656;23.292;2023-05-11T10:22:15;94607.78;;;9.60;79.99
9676;BME280;4876;42.656;23.292;2023-05-11T10:24:42;94612.78;;;9.84;80.89
9676;BME280;4876;42.656;23.292;2023-05-11T10:27:10;94614.19;;;10.12;78.36
9676;BME280;4876;42.656;23.292;2023-05-11T10:29:37;94611.75;;;10.16;78.10
9676;BME280;4876;42.656;23.292;2023-05-11T10:32:05;94616.97;;;10.30;79.22
9676;BME280;4876;42.656;23.292;2023-05-11T10:34:35;94601.19;;;10.52;78.21
9676;BME280;4876;42.656;23.292;2023-05-11T10:37:04;94591.84;;;10.77;76.49
9676;BME280;4876;42.656;23.292;2023-05-11T10:39:31;94586.97;;;10.62;75.33
9676;BME280;4876;42.656;23.292;2023-05-11T10:42:12;94593.41;;;10.87;76.84
9676;BME280;4876;42.656;23.292;2023-05-11T10:45:05;94592.25;;;11.10;75.06
9676;BME280;4876;42.656;23.292;2023-05-11T10:48:00;94596.28;;;11.08;75.30
9676;BME280;4876;42.656;23.292;2023-05-11T10:53:36;94589.19;;;11.25;74.53
9676;BME280;4876;42.656;23.292;2023-05-11T10:56:32;94593.41;;;10.87;74.35
9676;BME280;4876;42.656;23.292;2023-05-11T10:59:19;94605.78;;;10.86;74.60
9676;BME280;4876;42.656;23.292;2023-05-11T11:01:53;94595.66;;;10.62;75.62
9676;BME280;4876;42.656;23.292;2023-05-11T11:04:23;94585.25;;;10.97;74.92
9676;BME280;4876;42.656;23.292;2023-05-11T11:07:04;94595.38;;;11.12;74.68
9676;BME280;4876;42.656;23.292;2023-05-11T11:09:50;94592.75;;;11.21;73.93
9676;BME280;4876;42.656;23.292;2023-05-11T11:12:18;94589.84;;;11.31;73.13
9676;BME280;4876;42.656;23.292;2023-05-11T11:14:58;94587.63;;;11.07;73.38
9676;BME280;4876;42.656;23.292;2023-05-11T11:17:26;94587.63;;;11.07;73.31
9676;BME280;4876;42.656;23.292;2023-05-11T11:19:56;94593.66;;;11.16;73.77
9676;BME280;4876;42.656;23.292;2023-05-11T11:22:43;94596.34;;;11.42;73.49
9676;BME280;4876;42.656;23.292;2023-05-11T11:25:11;94583.91;;;11.08;72.89
9676;BME280;4876;42.656;23.292;2023-05-11T11:27:56;94594.28;;;11.22;73.15
9676;BME280;4876;42.656;23.292;2023-05-11T11:30:25;94587.19;;;11.31;73.80
9676;BME280;4876;42.656;23.292;2023-05-11T11:33:29;94570.47;;;11.18;73.65
9676;BME280;4876;42.656;23.292;2023-05-11T11:35:45;94580.53;;;11.33;73.70
9676;BME280;4876;42.656;23.292;2023-05-11T11:38:15;94569.81;;;11.21;73.25
9676;BME280;4876;42.656;23.292;2023-05-11T11:40:43;94580.84;;;11.41;73.58
9676;BME280;4876;42.656;23.292;2023-05-11T11:43:11;94581.81;;;11.62;72.98
9676;BME280;4876;42.656;23.292;2023-05-11T11:45:39;94590.78;;;11.61;71.29
9676;BME280;4876;42.656;23.292;2023-05-11T11:48:10;94583.03;;;11.39;72.25
9676;BME280;4876;42.656;23.292;2023-05-11T11:50:39;94575.28;;;11.51;73.57
9676;BME280;4876;42.656;23.292;2023-05-11T11:53:11;94577.59;;;11.61;72.07
9676;BME280;4876;42.656;23.292;2023-05-11T11:55:47;94579.94;;;11.54;71.88
9676;BME280;4876;42.656;23.292;2023-05-11T12:01:22;94579.94;;;11.54;71.80
9676;BME280;4876;42.656;23.292;2023-05-11T12:04:09;94566.91;;;11.31;71.92
9676;BME280;4876;42.656;23.292;2023-05-11T12:06:40;94576.84;;;11.69;72.59
9676;BME280;4876;42.656;23.292;2023-05-11T12:09:09;94577.59;;;11.61;71.72
9676;BME280;4876;42.656;23.292;2023-05-11T12:11:37;94562.88;;;11.60;71.60
9676;BME280;4876;42.656;23.292;2023-05-11T12:14:05;94572.19;;;11.49;71.97
9676;BME280;4876;42.656;23.292;2023-05-11T12:16:34;94573.59;;;11.64;71.53
9676;BME280;4876;42.656;23.292;2023-05-11T12:19:01;94565.06;;;11.58;72.03
9676;BME280;4876;42.656;23.292;2023-05-11T12:21:30;94541.22;;;11.63;72.46
9676;BME280;4876;42.656;23.292;2023-05-11T12:23:58;94571.44;;;11.83;72.40
9676;BME280;4876;42.656;23.292;2023-05-11T12:26:28;94559.16;;;11.61;71.55
9676;BME280;4876;42.656;23.292;2023-05-11T12:29:07;94557.63;;;11.69;71.65
9676;BME280;4876;42.656;23.292;2023-05-11T12:31:35;94533.94;;;11.69;71.59
9676;BME280;4876;42.656;23.292;2023-05-11T12:34:01;94551.25;;;11.61;72.26
9676;BME280;4876;42.656;23.292;2023-05-11T12:36:28;94545.84;;;11.66;72.02
9676;BME280;4876;42.656;23.292;2023-05-11T12:38:56;94542.13;;;11.67;72.55
9676;BME280;4876;42.656;23.292;2023-05-11T12:41:23;94541.97;;;11.46;72.90
9676;BME280;4876;42.656;23.292;2023-05-11T12:43:51;94543.69;;;11.33;74.40
9676;BME280;4876;42.656;23.292;2023-05-11T12:46:20;94542.75;;;11.47;73.91
9676;BME280;4876;42.656;23.292;2023-05-11T12:48:48;94542.16;;;11.50;73.30
9676;BME280;4876;42.656;23.292;2023-05-11T12:51:46;94545.69;;;11.45;72.63
9676;BME280;4876;42.656;23.292;2023-05-11T12:54:28;94531.63;;;11.50;73.10
9676;BME280;4876;42.656;23.292;2023-05-11T12:56:55;94526.03;;;11.25;73.63
9676;BME280;4876;42.656;23.292;2023-05-11T12:59:24;94523.50;;;11.03;74.30
9676;BME280;4876;42.656;23.292;2023-05-11T13:01:52;94525.84;;;11.13;74.52
9676;BME280;4876;42.656;23.292;2023-05-11T13:04:27;94492.53;;;10.91;74.58
9676;BME280;4876;42.656;23.292;2023-05-11T13:06:54;94513.75;;;11.03;74.83
9676;BME280;4876;42.656;23.292;2023-05-11T13:09:22;94511.28;;;11.07;74.43
9676;BME280;4876;42.656;23.292;2023-05-11T13:12:05;94508.38;;;11.26;74.71
9676;BME280;4876;42.656;23.292;2023-05-11T13:14:32;94511.47;;;11.19;73.53
9676;BME280;4876;42.656;23.292;2023-05-11T13:17:00;94507.56;;;11.17;73.81
9676;BME280;4876;42.656;23.292;2023-05-11T13:19:28;94513.63;;;11.26;73.77
9676;BME280;4876;42.656;23.292;2023-05-11T13:21:55;94508.53;;;11.38;73.43
9676;BME280;4876;42.656;23.292;2023-05-11T13:24:23;94512.84;;;11.34;73.62
9676;BME280;4876;42.656;23.292;2023-05-11T13:26:50;94508.06;;;11.27;74.41
9676;BME280;4876;42.656;23.292;2023-05-11T13:29:17;94504.47;;;11.15;74.00
9676;BME280;4876;42.656;23.292;2023-05-11T13:31:46;94504.34;;;11.28;74.24
9676;BME280;4876;42.656;23.292;2023-05-11T13:34:15;94500.00;;;11.32;74.22